Overview Statistics Trail Chart Weather Telemetry Raw packets
 

This is the latest recevied weather packets stored in our database for station/object XE2RCS-1. If no packets are shown the sender has not sent any weather packets the latest 10 day(s).

<< 47 48 49 50 51 52 53 >>
Time Temp. Humidity Pressure Rain* Wind** Luminosity Snow
1787946530 30.56° C 79% 1016 hPa 0 mm - - -
1787945929 26.11° C 54% 1016 hPa 0 mm - - -
1787945329 27.22° C 54% 1017 hPa 0 mm - - -
1787944728 28.33° C 54% 1017 hPa 0 mm - - -
1787944128 25° C 38% 1017 hPa 0 mm - - -
1787943527 26.11° C 38% 1017 hPa 0 mm - - -
1787942927 27.22° C 38% 1017 hPa 0 mm - - -
1787942326 24.44° C 44% 1017 hPa 0 mm - - -
1787941725 25.56° C 44% 1018 hPa 0 mm - - -
1787941125 26.67° C 44% 1018 hPa 0 mm - - -
1787940524 25° C 10% - 0 mm - - -
1787939924 26.11° C 10% - 0 mm - - -
1787939323 27.22° C 10% - 0 mm - - -
1787938723 28.33° C 10% - 0 mm - - -
1787938122 28.33° C 10% - 0 mm - - -
1787937521 28.33° C 53% 1018 hPa 0 mm - - -
1787936920 28.33° C 53% 1018 hPa 0 mm - - -
1787936320 29.44° C 53% 1018 hPa 0 mm - - -
1787935719 23.33° C 47% 1018 hPa 0 mm - - -
1787935118 23.89° C 10% - 0 mm - - -
1787934518 25° C 10% - 0 mm - - -
1787933917 26.11° C 10% - 0 mm - - -
1787933317 27.22° C 10% - 0 mm - - -
1787932716 27.22° C 10% - 0 mm - - -
1787932115 27.22° C 10% - 0 mm - - -

* Rain latest hour (hover to see other rain measurements)
** Current wind speed in m/s (hover to see current wind gust speed)